createdAt,value
2018-12-15T00:00:38.856Z,0.10
2018-12-15T00:03:09.998Z,0.10
2018-12-15T00:05:40.443Z,0.10
2018-12-15T00:08:10.671Z,0.20
2018-12-15T00:10:45.150Z,0.20
2018-12-15T00:13:15.718Z,0.20
2018-12-15T00:15:47.422Z,0.20
2018-12-15T00:18:21.025Z,0.20
2018-12-15T00:20:52.800Z,0.10
2018-12-15T00:23:22.845Z,0.00
2018-12-15T00:25:52.957Z,0.10
2018-12-15T00:28:22.177Z,0.20
2018-12-15T00:30:59.464Z,0.20
2018-12-15T00:36:08.118Z,0.30
2018-12-15T00:38:38.227Z,0.10
2018-12-15T00:41:08.823Z,0.30
2018-12-15T00:43:39.005Z,0.30
2018-12-15T00:46:09.468Z,0.10
2018-12-15T00:48:40.255Z,-0.10
2018-12-15T00:51:14.068Z,0.00
2018-12-15T00:53:43.294Z,0.10
2018-12-15T00:56:12.662Z,0.00
2018-12-15T00:58:43.319Z,-0.10
2018-12-15T01:01:13.995Z,0.00
2018-12-15T01:03:44.743Z,0.10
2018-12-15T01:06:14.567Z,0.20
2018-12-15T01:08:45.246Z,0.20
2018-12-15T01:11:14.558Z,0.20
2018-12-15T01:13:43.840Z,0.30
2018-12-15T01:16:14.923Z,0.20
2018-12-15T01:18:44.144Z,0.20
2018-12-15T01:21:14.449Z,0.30
2018-12-15T01:23:44.462Z,0.30
2018-12-15T01:26:15.643Z,0.40
2018-12-15T01:28:46.298Z,0.50
2018-12-15T01:31:16.422Z,0.60
2018-12-15T01:33:47.037Z,0.70
2018-12-15T01:36:17.456Z,0.60
2018-12-15T01:38:47.491Z,0.60
2018-12-15T01:41:17.346Z,0.50
2018-12-15T01:43:46.592Z,0.00
2018-12-15T01:46:16.824Z,-0.10
2018-12-15T01:48:46.203Z,-0.20
2018-12-15T01:51:16.349Z,-0.20
2018-12-15T01:53:47.529Z,-0.20
2018-12-15T01:56:18.513Z,-0.40
2018-12-15T01:58:48.586Z,-0.50
2018-12-15T02:01:18.152Z,-0.40
2018-12-15T02:03:49.712Z,-0.30
2018-12-15T02:06:19.790Z,-0.30
2018-12-15T02:08:49.326Z,-0.30
2018-12-15T02:11:21.945Z,-0.30
2018-12-15T02:13:51.155Z,-0.30
2018-12-15T02:16:20.409Z,-0.20
2018-12-15T02:18:49.611Z,-0.10
2018-12-15T02:21:20.071Z,0.10
2018-12-15T02:23:49.578Z,0.20
2018-12-15T02:26:19.618Z,0.30
2018-12-15T02:28:50.731Z,0.20
2018-12-15T02:31:20.612Z,0.30
2018-12-15T02:33:50.177Z,0.30
2018-12-15T02:36:19.375Z,0.30
2018-12-15T02:38:49.160Z,0.30
2018-12-15T02:41:18.538Z,0.40
2018-12-15T02:43:48.666Z,0.50
2018-12-15T02:46:19.082Z,0.50
2018-12-15T02:48:48.393Z,0.50
2018-12-15T02:51:20.424Z,0.40
2018-12-15T02:53:54.112Z,0.20
2018-12-15T02:56:24.192Z,-0.20
2018-12-15T02:58:53.467Z,-0.40
2018-12-15T03:01:24.706Z,-0.40
2018-12-15T03:03:53.956Z,-0.30
2018-12-15T03:06:23.383Z,-0.20
2018-12-15T03:08:52.641Z,-0.10
2018-12-15T03:11:22.894Z,0.10
2018-12-15T03:13:52.070Z,-0.10
2018-12-15T03:16:21.827Z,-0.30
2018-12-15T03:18:51.884Z,-0.30
2018-12-15T03:21:21.592Z,-0.20
2018-12-15T03:23:51.079Z,-0.10
2018-12-15T03:26:22.685Z,0.00
2018-12-15T03:28:52.149Z,0.10
2018-12-15T03:31:21.424Z,0.10
2018-12-15T03:33:51.602Z,0.00
2018-12-15T03:36:24.939Z,0.10
2018-12-15T03:38:54.860Z,0.10
2018-12-15T03:41:24.489Z,0.00
2018-12-15T03:43:54.723Z,-0.20
2018-12-15T03:46:24.575Z,-0.30
2018-12-15T03:48:53.850Z,-0.50
2018-12-15T03:51:23.220Z,-0.30
2018-12-15T03:53:52.406Z,-0.20
2018-12-15T03:56:21.824Z,-0.10
2018-12-15T03:58:51.347Z,-0.10
2018-12-15T04:01:22.463Z,-0.10
2018-12-15T04:03:51.870Z,-0.40
2018-12-15T04:06:21.509Z,-0.40
2018-12-15T04:08:50.798Z,-0.30
2018-12-15T04:11:20.170Z,-0.30
2018-12-15T04:13:49.335Z,-0.30
2018-12-15T04:16:19.218Z,-0.30
2018-12-15T04:18:49.712Z,-0.30
2018-12-15T04:21:20.102Z,-0.20
2018-12-15T04:23:49.378Z,-0.20
2018-12-15T04:26:19.703Z,-0.20
2018-12-15T04:28:49.799Z,-0.10
2018-12-15T04:31:23.530Z,-0.10
2018-12-15T04:33:53.108Z,-0.30
2018-12-15T04:36:23.092Z,-0.30
2018-12-15T04:38:52.519Z,-0.20
2018-12-15T04:41:22.222Z,-0.10
2018-12-15T04:43:51.626Z,-0.30
2018-12-15T04:46:21.753Z,-0.40
2018-12-15T04:48:50.993Z,-0.50
2018-12-15T04:51:20.392Z,-0.40
2018-12-15T04:53:52.813Z,-0.20
2018-12-15T04:56:25.904Z,-0.10
2018-12-15T04:58:55.394Z,0.10
2018-12-15T05:01:26.871Z,0.10
2018-12-15T05:04:16.258Z,0.10
2018-12-15T05:06:45.798Z,-0.10
2018-12-15T05:09:15.031Z,-0.40
2018-12-15T05:11:44.983Z,-0.60
2018-12-15T05:14:15.375Z,-0.50
2018-12-15T05:16:45.143Z,-0.30
2018-12-15T05:19:14.871Z,-0.30
2018-12-15T05:21:44.096Z,-0.20
2018-12-15T05:24:15.879Z,-0.10
2018-12-15T05:26:45.104Z,-0.10
2018-12-15T05:29:14.344Z,-0.20
2018-12-15T05:31:44.174Z,-0.10
2018-12-15T05:34:14.367Z,-0.10
2018-12-15T05:36:43.591Z,0.00
2018-12-15T05:39:13.471Z,0.10
2018-12-15T05:41:44.482Z,0.10
2018-12-15T05:44:13.685Z,0.10
2018-12-15T05:46:42.871Z,0.00
2018-12-15T05:49:12.072Z,0.10
2018-12-15T05:51:41.277Z,0.10
2018-12-15T05:54:11.843Z,0.10
2018-12-15T05:56:41.715Z,-0.10
2018-12-15T05:59:10.963Z,-0.20
2018-12-15T06:01:41.047Z,-0.10
2018-12-15T06:04:10.296Z,-0.20
2018-12-15T06:06:40.899Z,-0.10
2018-12-15T06:09:10.144Z,-0.20
2018-12-15T06:11:40.215Z,-0.10
2018-12-15T06:14:11.566Z,0.00
2018-12-15T06:16:41.053Z,0.00
2018-12-15T06:19:11.045Z,0.00
2018-12-15T06:21:40.970Z,0.00
2018-12-15T06:24:10.998Z,0.10
2018-12-15T06:26:40.410Z,0.00
2018-12-15T06:29:10.854Z,0.00
2018-12-15T06:31:43.261Z,0.00
2018-12-15T06:34:13.931Z,-0.10
2018-12-15T06:36:45.398Z,-0.10
2018-12-15T06:39:15.618Z,-0.20
2018-12-15T06:41:46.565Z,-0.10
2018-12-15T06:44:16.253Z,0.00
2018-12-15T06:46:51.689Z,0.00
2018-12-15T06:49:20.895Z,0.10
2018-12-15T06:51:52.598Z,0.00
2018-12-15T06:54:24.090Z,0.00
2018-12-15T06:56:53.854Z,-0.10
2018-12-15T06:59:23.077Z,0.00
2018-12-15T07:01:53.774Z,0.00
2018-12-15T07:04:23.010Z,-0.10
2018-12-15T07:06:52.307Z,-0.40
2018-12-15T07:09:22.181Z,-0.40
2018-12-15T07:11:52.205Z,-0.50
2018-12-15T07:14:22.905Z,-0.50
2018-12-15T07:16:53.695Z,-0.50
2018-12-15T07:19:23.246Z,-0.40
2018-12-15T07:21:52.786Z,-0.40
2018-12-15T07:24:22.472Z,-0.30
2018-12-15T07:26:52.423Z,-0.30
2018-12-15T07:29:22.440Z,-0.20
2018-12-15T07:31:51.903Z,-0.10
2018-12-15T07:34:21.454Z,0.00
2018-12-15T07:36:50.739Z,0.00
2018-12-15T07:39:21.209Z,0.00
2018-12-15T07:41:50.668Z,-0.30
2018-12-15T07:44:20.577Z,-0.50
2018-12-15T07:46:51.221Z,-0.50
2018-12-15T07:49:20.475Z,-0.50
2018-12-15T07:51:50.003Z,-0.30
2018-12-15T07:54:19.487Z,-0.20
2018-12-15T07:56:48.992Z,-0.20
2018-12-15T07:59:18.531Z,-0.40
2018-12-15T08:01:47.996Z,-0.40
2018-12-15T08:04:18.138Z,-0.50
2018-12-15T08:06:48.361Z,-0.50
2018-12-15T08:09:17.934Z,-0.30
2018-12-15T08:11:52.992Z,-0.30
2018-12-15T08:14:22.641Z,-0.40
2018-12-15T08:16:52.819Z,-0.30
2018-12-15T08:19:22.058Z,-0.20
2018-12-15T08:21:51.266Z,0.00
2018-12-15T08:24:20.759Z,0.10
2018-12-15T08:26:54.070Z,0.10
2018-12-15T08:29:24.817Z,0.10
2018-12-15T08:31:54.089Z,0.20
2018-12-15T08:34:23.485Z,0.30
2018-12-15T08:36:53.126Z,0.10
2018-12-15T08:39:22.677Z,0.00
2018-12-15T08:41:52.097Z,0.00
2018-12-15T08:44:21.993Z,0.10
2018-12-15T08:46:53.303Z,0.00
2018-12-15T08:49:22.827Z,1.70
2018-12-15T08:51:52.680Z,0.10
2018-12-15T08:54:22.779Z,0.10
2018-12-15T08:56:52.326Z,0.20
2018-12-15T08:59:21.565Z,0.20
2018-12-15T09:01:52.872Z,0.20
2018-12-15T09:04:23.037Z,0.10
2018-12-15T09:06:54.579Z,0.20
2018-12-15T09:09:24.281Z,0.30
2018-12-15T09:11:54.902Z,0.30
2018-12-15T09:14:24.566Z,0.40
2018-12-15T09:16:55.406Z,0.50
2018-12-15T09:22:24.109Z,0.40
2018-12-15T09:24:53.894Z,0.40
2018-12-15T09:27:24.744Z,0.30
2018-12-15T09:29:53.992Z,0.10
2018-12-15T09:32:25.884Z,0.20
2018-12-15T09:34:55.230Z,0.40
2018-12-15T09:37:27.007Z,0.50
2018-12-15T09:39:57.653Z,0.50
2018-12-15T09:42:27.179Z,0.50
2018-12-15T09:44:57.647Z,0.50
2018-12-15T09:47:27.349Z,0.60
2018-12-15T09:49:59.269Z,0.60
2018-12-15T09:52:29.680Z,0.70
2018-12-15T09:55:00.411Z,0.60
2018-12-15T09:57:30.454Z,0.60
2018-12-15T10:00:00.263Z,0.60
2018-12-15T10:02:30.275Z,0.50
2018-12-15T10:05:00.159Z,0.40
2018-12-15T10:07:29.417Z,0.50
2018-12-15T10:10:00.140Z,0.50
2018-12-15T10:12:29.623Z,0.40
2018-12-15T10:14:59.050Z,0.40
2018-12-15T10:17:28.910Z,0.40
2018-12-15T10:19:58.424Z,0.50
2018-12-15T10:22:28.570Z,0.40
2018-12-15T10:24:57.923Z,0.30
2018-12-15T10:27:27.561Z,0.30
2018-12-15T10:30:02.434Z,0.30
2018-12-15T10:32:37.936Z,0.40
2018-12-15T10:35:07.927Z,0.40
2018-12-15T10:37:38.568Z,0.60
2018-12-15T10:40:08.982Z,0.70
2018-12-15T10:42:41.256Z,0.70
2018-12-15T10:45:10.820Z,0.50
2018-12-15T10:47:42.320Z,0.30
2018-12-15T10:50:15.758Z,0.30
2018-12-15T10:52:46.079Z,0.10
2018-12-15T10:55:15.352Z,0.10
2018-12-15T10:57:45.890Z,0.30
2018-12-15T11:00:22.235Z,0.60
2018-12-15T11:02:55.634Z,0.30
2018-12-15T11:05:25.348Z,0.90
2018-12-15T11:07:55.874Z,1.00
2018-12-15T11:10:25.734Z,1.10
2018-12-15T11:12:56.615Z,1.20
2018-12-15T11:15:26.137Z,1.20
2018-12-15T11:17:55.763Z,1.20
2018-12-15T11:20:26.249Z,1.00
2018-12-15T11:22:56.047Z,0.90
2018-12-15T11:28:33.747Z,0.70
2018-12-15T11:33:34.821Z,0.70
2018-12-15T11:36:05.014Z,0.60
2018-12-15T11:38:42.870Z,0.70
2018-12-15T11:44:06.579Z,0.50
2018-12-15T11:46:35.835Z,0.60
2018-12-15T11:49:05.980Z,0.70
2018-12-15T11:51:35.728Z,0.60
2018-12-15T11:54:05.576Z,0.70
2018-12-15T11:56:34.808Z,0.80
2018-12-15T12:02:02.379Z,0.80
2018-12-15T12:07:35.678Z,0.70
2018-12-15T12:10:05.582Z,0.60
2018-12-15T12:12:34.831Z,0.30
2018-12-15T12:15:04.966Z,0.50
2018-12-15T12:17:34.758Z,0.70
2018-12-15T12:20:05.511Z,0.80
2018-12-15T12:22:37.102Z,0.80
2018-12-15T12:25:07.147Z,0.80
2018-12-15T12:27:37.681Z,0.80
2018-12-15T12:30:07.272Z,0.90
2018-12-15T12:32:36.580Z,0.60
2018-12-15T12:35:06.069Z,0.70
2018-12-15T12:37:35.345Z,0.80
2018-12-15T12:46:03.852Z,0.40
2018-12-15T12:48:33.830Z,0.60
2018-12-15T12:51:05.308Z,0.70
2018-12-15T12:53:34.555Z,0.80
2018-12-15T12:56:26.302Z,0.60
2018-12-15T12:58:56.574Z,0.50
2018-12-15T13:01:27.336Z,0.10
2018-12-15T13:03:57.832Z,0.10
2018-12-15T13:06:29.479Z,0.20
2018-12-15T13:09:07.452Z,0.20
2018-12-15T13:11:39.783Z,0.20
2018-12-15T13:14:21.877Z,0.60
2018-12-15T13:16:53.038Z,0.60
2018-12-15T13:19:22.634Z,0.70
2018-12-15T13:21:52.827Z,0.80
2018-12-15T13:24:22.414Z,0.70
2018-12-15T13:26:59.194Z,0.60
2018-12-15T13:29:25.577Z,0.70
2018-12-15T13:31:55.016Z,0.70
2018-12-15T13:36:52.355Z,0.50
2018-12-15T13:39:33.499Z,0.30
2018-12-15T13:42:02.799Z,0.60
2018-12-15T13:44:32.941Z,0.70
2018-12-15T13:47:02.376Z,0.30
2018-12-15T13:49:33.804Z,0.60
2018-12-15T13:52:16.204Z,0.80
2018-12-15T13:57:49.633Z,0.80
2018-12-15T14:00:31.458Z,0.90
2018-12-15T14:03:00.987Z,0.90
2018-12-15T14:05:34.927Z,1.00
2018-12-15T14:08:05.399Z,1.00
2018-12-15T14:10:39.233Z,1.10
2018-12-15T14:13:13.849Z,0.90
2018-12-15T14:18:43.644Z,1.00
2018-12-15T14:21:17.379Z,0.20
2018-12-15T14:23:52.051Z,0.20
2018-12-15T14:26:23.103Z,0.10
2018-12-15T14:28:53.482Z,0.20
2018-12-15T14:31:23.857Z,0.30
2018-12-15T14:33:54.177Z,0.20
2018-12-15T14:36:33.353Z,0.20
2018-12-15T14:39:23.213Z,0.10
2018-12-15T14:42:02.527Z,0.10
2018-12-15T14:44:33.220Z,0.10
2018-12-15T14:47:04.174Z,0.30
2018-12-15T14:49:35.076Z,0.40
2018-12-15T14:52:04.783Z,0.40
2018-12-15T14:54:34.472Z,0.60
2018-12-15T14:57:04.333Z,0.70
2018-12-15T14:59:53.390Z,0.50
2018-12-15T15:02:31.022Z,0.50
2018-12-15T15:05:07.834Z,0.60
2018-12-15T15:07:38.234Z,0.70
2018-12-15T15:10:10.672Z,0.60
2018-12-15T15:12:45.043Z,0.70
2018-12-15T15:15:18.755Z,0.80
2018-12-15T15:17:51.063Z,0.90
2018-12-15T15:20:21.720Z,0.90
2018-12-15T15:22:51.904Z,0.80
2018-12-15T15:25:22.778Z,0.70
2018-12-15T15:28:34.640Z,0.40
2018-12-15T15:31:04.776Z,0.20
2018-12-15T15:33:34.607Z,0.20
2018-12-15T15:36:13.760Z,0.20
2018-12-15T15:38:44.430Z,0.10
2018-12-15T15:41:13.700Z,0.00
2018-12-15T15:43:43.697Z,0.10
2018-12-15T15:46:14.603Z,0.30
2018-12-15T15:48:44.266Z,0.40
2018-12-15T15:51:15.294Z,0.20
2018-12-15T15:53:44.516Z,0.00
2018-12-15T15:56:14.446Z,-0.20
2018-12-15T15:58:44.938Z,-0.20
2018-12-15T16:01:14.376Z,-0.20
2018-12-15T16:03:44.532Z,-0.30
2018-12-15T16:06:15.497Z,-0.20
2018-12-15T16:08:45.337Z,-0.10
2018-12-15T16:11:16.351Z,-0.10
2018-12-15T16:13:45.572Z,0.10
2018-12-15T16:16:46.405Z,0.20
2018-12-15T16:19:16.412Z,0.20
2018-12-15T16:21:46.709Z,0.20
2018-12-15T16:24:20.392Z,0.00
2018-12-15T16:26:49.652Z,-0.20
2018-12-15T16:29:19.131Z,-0.20
2018-12-15T16:31:48.424Z,-0.10
2018-12-15T16:34:18.385Z,0.00
2018-12-15T16:36:48.635Z,0.00
2018-12-15T16:39:18.701Z,0.00
2018-12-15T16:42:01.795Z,-0.10
2018-12-15T16:44:32.234Z,-0.10
2018-12-15T16:47:01.476Z,0.00
2018-12-15T16:52:40.587Z,-0.10
2018-12-15T16:55:11.271Z,0.10
2018-12-15T16:57:40.651Z,0.20
2018-12-15T17:00:14.757Z,0.20
2018-12-15T17:02:45.781Z,0.30
2018-12-15T17:05:15.543Z,0.30
2018-12-15T17:07:50.600Z,0.20
2018-12-15T17:10:21.707Z,0.20
2018-12-15T17:12:51.901Z,0.10
2018-12-15T17:15:21.444Z,0.20
2018-12-15T17:17:53.215Z,0.20
2018-12-15T17:20:23.796Z,0.20
2018-12-15T17:22:53.139Z,0.10
2018-12-15T17:25:27.249Z,0.10
2018-12-15T17:28:08.755Z,0.10
2018-12-15T17:30:39.770Z,0.10
2018-12-15T17:33:09.794Z,0.00
2018-12-15T17:35:39.427Z,0.00
2018-12-15T17:38:10.743Z,0.00
2018-12-15T17:40:42.729Z,0.00
2018-12-15T17:43:12.782Z,0.10
2018-12-15T17:45:42.963Z,0.00
2018-12-15T17:48:12.232Z,-0.10
2018-12-15T17:50:50.637Z,-0.10
2018-12-15T17:53:26.687Z,0.00
2018-12-15T17:55:56.609Z,0.30
2018-12-15T17:58:26.977Z,0.30
2018-12-15T18:00:56.410Z,0.30
2018-12-15T18:03:26.006Z,0.20
2018-12-15T18:05:55.510Z,0.10
2018-12-15T18:08:26.475Z,0.20
2018-12-15T18:10:57.589Z,0.20
2018-12-15T18:13:30.001Z,0.20
2018-12-15T18:16:00.630Z,0.10
2018-12-15T18:18:29.969Z,-0.10
2018-12-15T18:21:01.082Z,-0.20
2018-12-15T18:23:30.446Z,-0.10
2018-12-15T18:26:03.403Z,-0.10
2018-12-15T18:28:33.272Z,-0.20
2018-12-15T18:31:03.621Z,-0.20
2018-12-15T18:33:37.042Z,-0.30
2018-12-15T18:36:05.058Z,-0.30
2018-12-15T18:38:36.516Z,-0.40
2018-12-15T18:41:07.882Z,-0.50
2018-12-15T18:46:03.796Z,-0.70
2018-12-15T18:48:33.139Z,-0.80
2018-12-15T18:51:05.061Z,-0.80
2018-12-15T18:53:35.368Z,-0.70
2018-12-15T18:56:04.818Z,-0.70
2018-12-15T18:58:37.349Z,-0.70
2018-12-15T19:01:08.116Z,-0.60
2018-12-15T19:03:38.915Z,-0.60
2018-12-15T19:06:08.801Z,-0.60
2018-12-15T19:08:38.209Z,-0.60
2018-12-15T19:11:15.799Z,-0.60
2018-12-15T19:13:45.971Z,-0.50
2018-12-15T19:16:16.120Z,-0.70
2018-12-15T19:18:45.442Z,-0.70
2018-12-15T19:21:15.035Z,-0.80
2018-12-15T19:23:44.389Z,-0.90
2018-12-15T19:26:13.837Z,-0.90
2018-12-15T19:28:45.766Z,-0.90
2018-12-15T19:31:16.933Z,-0.90
2018-12-15T19:33:52.428Z,-0.90
2018-12-15T19:39:25.199Z,-1.00
2018-12-15T19:41:55.193Z,-1.00
2018-12-15T19:44:24.650Z,-1.00
2018-12-15T19:46:54.755Z,-1.10
2018-12-15T19:49:26.001Z,-1.20
2018-12-15T19:52:02.583Z,-1.20
2018-12-15T19:54:31.841Z,-1.20
2018-12-15T19:57:07.892Z,-1.30
2018-12-15T19:59:39.691Z,-1.40
2018-12-15T20:02:09.833Z,-1.40
2018-12-15T20:04:39.160Z,-1.40
2018-12-15T20:07:09.830Z,-1.40
2018-12-15T20:09:42.134Z,-1.40
2018-12-15T20:12:13.550Z,-1.50
2018-12-15T20:14:43.137Z,-1.50
2018-12-15T20:17:15.889Z,-1.60
2018-12-15T20:19:51.469Z,-1.60
2018-12-15T20:22:29.579Z,-1.80
2018-12-15T20:25:08.206Z,-2.00
2018-12-15T20:27:45.525Z,-2.10
2018-12-15T20:30:24.860Z,-2.10
2018-12-15T20:33:02.331Z,-2.20
2018-12-15T20:35:39.540Z,-2.20
2018-12-15T20:38:22.029Z,-2.20
2018-12-15T20:41:09.439Z,-2.20
2018-12-15T20:43:55.084Z,-2.20
2018-12-15T20:46:35.645Z,-2.30
2018-12-15T20:49:23.213Z,-2.30
2018-12-15T20:51:59.284Z,-2.40
2018-12-15T20:54:36.448Z,-2.40
2018-12-15T20:57:13.486Z,-2.40
2018-12-15T20:59:52.375Z,-2.40
2018-12-15T21:02:36.378Z,-2.40
2018-12-15T21:08:03.966Z,-2.70
2018-12-15T21:10:39.813Z,-2.70
2018-12-15T21:13:17.136Z,-3.10
2018-12-15T21:16:00.375Z,-3.20
2018-12-15T21:18:36.667Z,-3.20
2018-12-15T21:21:18.705Z,-3.10
2018-12-15T21:24:19.887Z,-3.10
2018-12-15T21:26:54.759Z,-3.00
2018-12-15T21:29:29.648Z,-2.90
2018-12-15T21:32:13.372Z,-2.90
2018-12-15T21:34:50.861Z,-2.80
2018-12-15T21:37:27.283Z,-2.80
2018-12-15T21:40:09.447Z,-2.70
2018-12-15T21:42:45.901Z,-2.80
2018-12-15T21:45:20.814Z,-2.80
2018-12-15T21:47:57.796Z,-3.10
2018-12-15T21:50:37.069Z,-3.20
2018-12-15T21:53:17.200Z,-3.30
2018-12-15T21:55:54.010Z,-3.30
2018-12-15T21:58:30.416Z,-3.30
2018-12-15T22:01:07.524Z,-3.10
2018-12-15T22:03:43.642Z,-3.00
2018-12-15T22:06:23.846Z,-2.90
2018-12-15T22:09:00.860Z,-2.70
2018-12-15T22:11:36.131Z,-2.70
2018-12-15T22:14:21.370Z,-2.90
2018-12-15T22:17:08.818Z,-2.80
2018-12-15T22:20:21.655Z,-2.80
2018-12-15T22:22:57.236Z,-2.70
2018-12-15T22:25:32.514Z,-2.50
2018-12-15T22:28:09.689Z,-2.40
2018-12-15T22:30:46.882Z,-2.30
2018-12-15T22:33:26.245Z,-2.20
2018-12-15T22:36:02.595Z,-2.10
2018-12-15T22:38:38.167Z,-2.00
2018-12-15T22:41:15.225Z,-2.00
2018-12-15T22:43:53.363Z,-2.00
2018-12-15T22:46:28.898Z,-1.90
2018-12-15T22:49:04.161Z,-2.00
2018-12-15T22:51:40.625Z,-1.90
2018-12-15T22:54:17.452Z,-1.90
2018-12-15T22:56:52.962Z,-1.90
2018-12-15T22:59:30.934Z,-1.80
2018-12-15T23:02:08.906Z,-1.70
2018-12-15T23:04:43.538Z,-1.70
2018-12-15T23:07:19.921Z,-1.70
2018-12-15T23:10:01.375Z,-1.50
2018-12-15T23:12:37.616Z,-1.40
2018-12-15T23:15:14.999Z,-1.40
2018-12-15T23:17:52.186Z,-1.30
2018-12-15T23:20:30.669Z,-1.30
2018-12-15T23:23:11.108Z,-1.20
2018-12-15T23:25:47.974Z,-1.10
2018-12-15T23:28:22.539Z,-1.10
2018-12-15T23:30:57.772Z,-1.00
2018-12-15T23:33:32.609Z,-0.90
2018-12-15T23:36:08.186Z,-0.90
2018-12-15T23:38:41.154Z,-0.80
2018-12-15T23:41:17.176Z,-0.80
2018-12-15T23:43:53.145Z,-0.70
2018-12-15T23:46:28.673Z,-0.60
2018-12-15T23:49:03.916Z,-0.70
2018-12-15T23:51:41.016Z,-0.60
2018-12-15T23:54:16.929Z,-0.60
2018-12-15T23:56:51.762Z,-0.60
2018-12-15T23:59:27.730Z,-0.50
